Time;durP1;ratioP1;P1;durP2;ratioP2;P2;SDS_P1;SDS_P2;PMS_P1;PMS_P2;Temp;Humidity;BMP_temperature;BMP_pressure;BME280_temperature;BME280_humidity;BME280_pressure;Samples;Min_cycle;Max_cycle;Signal;HPM_P1;HPM_P2
2020/12/12 15:13:22;;;;;;;11.23;8.77;;;10.70;99.90;;;;;;4695610;24;20238;-84
2020/12/12 16:50:38;;;;;;;10.40;9.32;;;10.50;99.90;;;;;;3999601;24;20703;-84
2020/12/12 17:01:58;;;;;;;10.13;8.93;;;10.40;99.90;;;;;;4719628;30;20254;-88
2020/12/12 17:04:25;;;;;;;15.75;9.75;;;10.50;99.90;;;;;;4694733;30;20213;-86
2020/12/12 17:06:51;;;;;;;11.18;9.23;;;10.50;99.90;;;;;;4720231;30;20193;-87
2020/12/12 17:09:17;;;;;;;10.35;9.27;;;10.50;99.90;;;;;;4765397;30;20199;-87
2020/12/12 17:11:46;;;;;;;14.90;11.27;;;10.50;99.90;;;;;;4765853;30;20285;-82
2020/12/12 17:14:13;;;;;;;13.75;10.75;;;10.50;99.90;;;;;;4752405;30;20290;-85
2020/12/12 17:16:39;;;;;;;12.80;10.65;;;10.50;99.90;;;;;;4759351;30;20817;-82
2020/12/12 17:19:07;;;;;;;13.65;11.40;;;10.40;99.90;;;;;;4755521;30;20259;-86
2020/12/12 17:21:40;;;;;;;11.60;10.40;;;10.50;99.90;;;;;;4754653;30;20206;-84
2020/12/12 17:24:08;;;;;;;12.00;10.75;;;10.40;99.90;;;;;;4784305;29;20221;-83
2020/12/12 17:26:35;;;;;;;11.40;10.25;;;10.40;99.90;;;;;;4781820;30;20186;-83
2020/12/12 17:29:02;;;;;;;10.70;9.52;;;10.40;99.90;;;;;;4748137;30;20214;-85
2020/12/12 17:31:34;;;;;;;10.77;8.48;;;10.40;99.90;;;;;;4760377;30;20236;-84
2020/12/12 17:34:01;;;;;;;10.48;9.45;;;10.40;99.90;;;;;;4751912;30;20203;-85
2020/12/12 17:36:49;;;;;;;18.33;11.55;;;10.50;99.90;;;;;;4762663;30;20244;-85
2020/12/12 17:39:17;;;;;;;10.77;8.73;;;10.40;99.90;;;;;;4730990;30;20257;-85
2020/12/12 17:41:47;;;;;;;13.65;11.70;;;10.40;99.90;;;;;;4753813;30;20617;-84
2020/12/12 17:44:15;;;;;;;12.30;10.23;;;10.50;99.90;;;;;;4778547;29;20845;-83
2020/12/12 17:46:43;;;;;;;12.98;11.00;;;10.50;99.90;;;;;;4771008;30;20182;-84
2020/12/12 17:49:11;;;;;;;12.88;10.05;;;10.50;99.90;;;;;;4784333;30;20207;-84
2020/12/12 17:51:38;;;;;;;16.85;13.13;;;10.50;99.90;;;;;;4755992;30;20187;-86
2020/12/12 17:54:05;;;;;;;14.70;11.80;;;10.50;99.90;;;;;;4756295;30;20202;-85
2020/12/12 17:56:31;;;;;;;12.48;11.18;;;10.50;99.90;;;;;;4769145;30;20178;-86
2020/12/12 17:58:57;;;;;;;14.18;11.10;;;10.60;99.90;;;;;;4757702;30;20187;-87
2020/12/12 18:01:23;;;;;;;13.10;10.25;;;10.60;99.90;;;;;;4759316;30;20214;-87
2020/12/12 18:03:50;;;;;;;16.50;11.20;;;10.60;99.90;;;;;;4775321;30;20211;-85
2020/12/12 18:06:16;;;;;;;14.70;11.43;;;10.70;99.90;;;;;;4764004;30;21222;-86
2020/12/12 18:08:42;;;;;;;13.13;10.32;;;10.70;99.90;;;;;;4774174;30;20195;-86
2020/12/12 18:11:08;;;;;;;15.80;11.00;;;10.80;99.90;;;;;;4787270;30;20182;-86
2020/12/12 18:13:34;;;;;;;15.40;11.25;;;10.80;99.90;;;;;;4794474;29;20639;-86
2020/12/12 18:16:00;;;;;;;13.83;11.20;;;10.80;99.90;;;;;;4809904;29;20212;-86
2020/12/12 18:18:27;;;;;;;13.60;10.70;;;10.80;99.90;;;;;;4764741;30;20610;-87
2020/12/12 18:20:54;;;;;;;12.00;10.20;;;10.80;99.90;;;;;;4799186;30;20229;-87
2020/12/12 18:23:20;;;;;;;13.65;11.88;;;10.80;99.90;;;;;;4765037;30;20601;-87
2020/12/12 18:25:46;;;;;;;12.50;10.40;;;10.80;99.90;;;;;;4748144;30;20190;-86
2020/12/12 18:28:12;;;;;;;15.98;11.25;;;10.80;99.90;;;;;;4744902;30;20230;-86
2020/12/12 18:30:39;;;;;;;12.80;9.60;;;10.80;99.90;;;;;;4726768;30;20191;-87
2020/12/12 18:33:05;;;;;;;12.85;11.10;;;10.90;99.90;;;;;;4742194;30;20229;-87
2020/12/12 18:35:33;;;;;;;13.52;10.85;;;10.90;99.90;;;;;;4759929;30;20561;-86
2020/12/12 18:38:00;;;;;;;14.80;11.40;;;10.80;99.90;;;;;;4778633;30;20191;-87
2020/12/12 18:40:30;;;;;;;16.08;12.20;;;10.80;99.90;;;;;;4755308;30;20644;-86
2020/12/12 18:43:01;;;;;;;14.70;12.20;;;10.90;99.90;;;;;;4779378;30;20185;-86
2020/12/12 18:45:27;;;;;;;14.40;11.30;;;10.90;99.90;;;;;;4767873;30;20230;-85
2020/12/12 18:47:55;;;;;;;13.48;10.73;;;10.90;99.90;;;;;;4730308;30;20188;-86
2020/12/12 18:50:24;;;;;;;14.25;11.95;;;11.00;99.90;;;;;;4739916;30;20268;-86
2020/12/12 18:52:54;;;;;;;13.05;11.07;;;10.90;99.90;;;;;;4757029;30;20215;-86
2020/12/12 18:55:25;;;;;;;12.43;11.15;;;10.90;99.90;;;;;;4773855;30;20283;-86
2020/12/12 18:57:52;;;;;;;11.50;10.30;;;10.90;99.90;;;;;;4745000;30;20187;-86
2020/12/12 19:00:21;;;;;;;15.07;12.15;;;10.90;99.90;;;;;;4770360;30;20214;-85
2020/12/12 19:02:48;;;;;;;14.30;11.93;;;10.90;99.90;;;;;;4750495;30;20183;-86
2020/12/12 19:05:33;;;;;;;11.10;9.95;;;10.90;99.90;;;;;;4766746;30;20285;-86
2020/12/12 19:08:01;;;;;;;10.65;9.55;;;10.80;99.90;;;;;;4763762;30;20198;-86
2020/12/12 19:10:28;;;;;;;12.98;11.43;;;10.80;99.90;;;;;;4783286;30;20266;-86
2020/12/12 19:12:55;;;;;;;12.30;10.25;;;10.90;99.90;;;;;;4750512;30;20187;-82
2020/12/12 19:15:22;;;;;;;12.55;10.80;;;10.80;99.90;;;;;;4782202;30;20211;-82
2020/12/12 19:17:54;;;;;;;13.68;10.80;;;10.80;99.90;;;;;;4748210;30;20191;-86
2020/12/12 19:20:20;;;;;;;12.70;10.88;;;10.80;99.90;;;;;;4766652;30;20203;-87
2020/12/12 19:22:47;;;;;;;14.38;12.52;;;10.80;99.90;;;;;;4745062;30;20270;-86
2020/12/12 19:25:15;;;;;;;12.38;11.00;;;10.80;99.90;;;;;;4750451;30;20215;-86
2020/12/12 19:27:44;;;;;;;14.60;12.07;;;10.80;99.90;;;;;;4739955;30;20187;-86
2020/12/12 19:30:14;;;;;;;11.18;10.07;;;10.80;99.90;;;;;;4726194;30;20269;-87
2020/12/12 19:32:40;;;;;;;12.98;10.82;;;10.90;99.90;;;;;;4750937;30;20182;-88
2020/12/12 19:35:06;;;;;;;14.30;11.10;;;10.90;99.90;;;;;;4774756;30;20210;-87
2020/12/12 19:37:32;;;;;;;15.60;11.53;;;11.00;99.90;;;;;;4738842;30;20191;-87
2020/12/12 19:40:01;;;;;;;13.60;10.95;;;11.00;99.90;;;;;;4739749;30;20706;-86
2020/12/12 19:42:28;;;;;;;13.40;11.38;;;11.00;99.90;;;;;;4737973;30;20175;-86
2020/12/12 19:44:56;;;;;;;14.60;12.27;;;11.00;99.90;;;;;;4750440;30;20710;-85
2020/12/12 19:47:22;;;;;;;13.05;11.68;;;11.00;99.90;;;;;;4771677;30;20589;-86
2020/12/12 19:49:51;;;;;;;12.35;11.00;;;11.10;99.90;;;;;;4746592;30;20198;-87
2020/12/12 19:52:22;;;;;;;14.27;12.30;;;11.10;99.90;;;;;;4767576;30;20241;-85
2020/12/12 19:54:51;;;;;;;16.15;12.88;;;11.10;99.90;;;;;;4752959;30;20207;-86
2020/12/12 19:57:20;;;;;;;13.27;11.90;;;11.10;99.90;;;;;;4755352;30;20175;-86
2020/12/12 19:59:46;;;;;;;13.98;11.35;;;11.20;99.90;;;;;;4740567;30;20187;-87
2020/12/12 20:02:12;;;;;;;13.50;10.55;;;11.20;99.90;;;;;;4754895;30;20200;-87
2020/12/12 20:04:39;;;;;;;14.23;11.50;;;11.10;99.90;;;;;;4765608;30;20207;-86
2020/12/12 20:07:07;;;;;;;14.07;11.38;;;11.10;99.90;;;;;;4756877;30;20657;-87
2020/12/12 20:09:33;;;;;;;13.35;11.80;;;11.00;99.90;;;;;;4741605;30;20273;-87
2020/12/12 20:12:00;;;;;;;13.80;11.95;;;11.00;99.90;;;;;;4785442;30;20191;-88
2020/12/12 20:14:29;;;;;;;13.07;11.73;;;10.90;99.90;;;;;;4740874;30;20257;-88
2020/12/12 20:16:59;;;;;;;14.15;11.38;;;10.90;99.90;;;;;;4746442;30;20525;-88
2020/12/12 20:19:26;;;;;;;13.98;11.10;;;10.90;99.90;;;;;;4768355;30;20233;-88
2020/12/12 20:21:54;;;;;;;13.23;11.82;;;10.80;99.90;;;;;;4730926;30;20212;-88
2020/12/12 20:24:24;;;;;;;12.57;11.10;;;10.80;99.90;;;;;;4726021;30;20275;-88
2020/12/12 20:26:52;;;;;;;17.10;11.20;;;10.80;99.90;;;;;;4740388;30;20270;-88
2020/12/12 20:29:21;;;;;;;14.10;12.25;;;10.80;99.90;;;;;;4757489;30;20179;-87
2020/12/12 20:31:52;;;;;;;11.07;9.63;;;10.80;99.90;;;;;;4760057;30;20273;-87
2020/12/12 20:34:45;;;;;;;12.20;10.90;;;10.90;99.90;;;;;;4777011;30;20699;-80
2020/12/12 20:37:12;;;;;;;11.15;10.05;;;10.80;99.90;;;;;;4742234;30;20224;-76
2020/12/12 20:39:51;;;;;;;11.55;10.23;;;10.90;99.90;;;;;;4748059;30;20273;-77
2020/12/12 20:42:22;;;;;;;12.75;11.02;;;10.80;99.90;;;;;;4731615;30;20184;-77
2020/12/12 20:44:58;;;;;;;11.57;10.38;;;10.90;99.90;;;;;;4749953;30;20203;-76
2020/12/12 20:47:24;;;;;;;11.98;10.10;;;10.90;99.90;;;;;;4751508;30;20592;-77
2020/12/12 20:49:53;;;;;;;13.10;11.80;;;11.00;99.90;;;;;;4748741;30;20509;-76
2020/12/12 20:52:24;;;;;;;12.15;10.80;;;11.00;99.90;;;;;;4758758;30;20186;-76
2020/12/12 20:55:06;;;;;;;13.82;10.45;;;11.00;99.90;;;;;;4765137;30;20264;-76
2020/12/12 20:57:41;;;;;;;12.90;9.52;;;11.00;99.90;;;;;;4766241;30;20182;-77
2020/12/12 21:00:12;;;;;;;14.52;10.60;;;11.00;99.90;;;;;;4753732;30;20278;-77
2020/12/12 21:02:38;;;;;;;13.38;10.65;;;11.00;99.90;;;;;;4759438;30;20202;-76
2020/12/12 21:05:07;;;;;;;14.63;10.50;;;11.00;99.90;;;;;;4719795;30;20210;-79
2020/12/12 21:07:32;;;;;;;15.25;11.18;;;11.00;99.90;;;;;;4754649;30;20199;-76
2020/12/12 21:09:58;;;;;;;17.77;11.90;;;11.00;99.90;;;;;;4717740;30;20211;-78
2020/12/12 21:12:29;;;;;;;14.33;11.10;;;11.00;99.90;;;;;;4733002;30;20538;-78
2020/12/12 21:14:55;;;;;;;12.27;9.93;;;11.00;99.90;;;;;;4747574;30;20621;-77
2020/12/12 21:17:22;;;;;;;13.90;11.60;;;11.00;99.90;;;;;;4733085;30;20176;-77
2020/12/12 21:19:48;;;;;;;13.93;11.95;;;11.10;99.90;;;;;;4751478;30;20739;-77
2020/12/12 21:22:14;;;;;;;13.93;10.65;;;11.10;99.90;;;;;;4736599;30;20573;-77
2020/12/12 21:24:41;;;;;;;11.45;10.35;;;11.20;99.90;;;;;;4751526;30;20557;-77
2020/12/12 21:27:08;;;;;;;14.93;11.27;;;11.10;99.90;;;;;;4736646;30;20175;-77
2020/12/12 21:29:34;;;;;;;14.18;11.65;;;11.10;99.90;;;;;;4750599;30;20192;-77
2020/12/12 21:32:03;;;;;;;17.63;12.90;;;11.10;99.90;;;;;;4752208;30;20172;-77
2020/12/12 21:34:29;;;;;;;12.95;11.55;;;11.10;99.90;;;;;;4721673;30;20556;-77
2020/12/12 21:36:56;;;;;;;15.35;12.88;;;11.00;99.90;;;;;;4752112;30;20187;-78
2020/12/12 21:39:22;;;;;;;13.35;11.88;;;11.00;99.90;;;;;;4754386;30;20179;-78
2020/12/12 21:41:49;;;;;;;16.67;11.57;;;11.00;99.90;;;;;;4736235;30;20862;-77
2020/12/12 21:44:19;;;;;;;14.32;12.55;;;11.00;99.90;;;;;;4736047;30;20653;-78
2020/12/12 21:46:46;;;;;;;15.65;12.65;;;11.00;99.90;;;;;;4736714;30;20207;-77
2020/12/12 21:49:12;;;;;;;17.17;12.90;;;11.10;99.90;;;;;;4738031;30;20188;-78
2020/12/12 21:51:44;;;;;;;13.90;12.23;;;11.10;99.90;;;;;;4736315;30;20211;-78
2020/12/12 21:54:11;;;;;;;12.65;11.25;;;11.10;99.90;;;;;;4751811;30;20994;-78
2020/12/12 21:56:37;;;;;;;15.73;12.43;;;11.20;99.90;;;;;;4752322;30;20184;-78
2020/12/12 21:59:03;;;;;;;13.60;10.40;;;11.20;99.90;;;;;;4721229;30;20184;-78
2020/12/12 22:01:30;;;;;;;13.15;11.68;;;11.30;99.90;;;;;;4751877;30;20701;-78
2020/12/12 22:04:00;;;;;;;14.77;12.68;;;11.30;99.90;;;;;;4752132;30;20184;-78
2020/12/12 22:06:33;;;;;;;14.32;11.43;;;11.30;99.90;;;;;;4735386;30;20206;-78
2020/12/12 22:08:59;;;;;;;14.77;13.10;;;11.30;99.90;;;;;;4751318;30;20542;-78
2020/12/12 22:11:32;;;;;;;11.90;10.70;;;11.30;99.90;;;;;;4750486;30;20200;-77
2020/12/12 22:13:59;;;;;;;13.30;11.90;;;11.20;99.90;;;;;;4735992;30;20994;-78
2020/12/12 22:16:25;;;;;;;14.88;11.68;;;11.20;99.90;;;;;;4754148;30;20187;-77
2020/12/12 22:18:53;;;;;;;13.32;11.55;;;11.20;99.90;;;;;;4751115;30;20630;-78
2020/12/12 22:21:19;;;;;;;14.63;11.87;;;11.30;99.90;;;;;;4751289;30;20207;-77
2020/12/12 22:23:45;;;;;;;12.47;10.83;;;11.30;99.90;;;;;;4751647;30;20187;-77
2020/12/12 22:26:11;;;;;;;11.75;10.55;;;11.20;99.90;;;;;;4751655;30;20233;-76
2020/12/12 22:28:37;;;;;;;12.15;10.95;;;11.20;99.90;;;;;;4751194;30;20549;-76
2020/12/12 22:31:03;;;;;;;13.50;11.97;;;11.20;99.90;;;;;;4750796;30;20211;-76
2020/12/12 22:33:29;;;;;;;15.25;12.65;;;11.30;99.90;;;;;;4751364;30;20578;-77
2020/12/12 22:35:59;;;;;;;15.25;11.63;;;11.30;99.90;;;;;;4750993;30;20207;-77
2020/12/12 22:38:24;;;;;;;11.95;10.73;;;11.30;99.90;;;;;;4749524;30;20274;-78
2020/12/12 22:40:51;;;;;;;13.70;10.83;;;11.30;99.90;;;;;;4734920;30;20278;-78
2020/12/12 22:43:17;;;;;;;17.58;12.38;;;11.40;99.90;;;;;;4750860;30;20582;-78
2020/12/12 22:45:43;;;;;;;13.20;11.68;;;11.40;99.90;;;;;;4751085;30;20575;-78
2020/12/12 22:48:09;;;;;;;15.50;12.35;;;11.40;99.90;;;;;;4751383;30;20256;-77
2020/12/12 22:50:36;;;;;;;15.52;12.13;;;11.40;99.90;;;;;;4750533;30;20214;-77
2020/12/12 22:53:02;;;;;;;16.23;12.10;;;11.40;99.90;;;;;;4739407;30;20188;-78
2020/12/12 22:55:29;;;;;;;18.85;11.05;;;11.50;99.90;;;;;;4750498;30;20192;-78
2020/12/12 22:57:55;;;;;;;15.05;11.85;;;11.50;99.90;;;;;;4750288;30;20176;-77
2020/12/12 23:00:31;;;;;;;14.23;11.43;;;11.50;99.90;;;;;;4751244;30;20274;-78
2020/12/12 23:03:01;;;;;;;13.38;11.52;;;11.50;99.90;;;;;;4750878;30;20557;-78
2020/12/12 23:05:27;;;;;;;13.15;10.35;;;11.50;99.90;;;;;;4734522;30;20573;-77
2020/12/12 23:07:55;;;;;;;15.70;13.13;;;11.50;99.90;;;;;;4750216;30;20172;-77
2020/12/12 23:10:21;;;;;;;20.13;13.32;;;11.50;99.90;;;;;;4734769;30;20207;-77
2020/12/12 23:12:49;;;;;;;13.95;12.50;;;11.50;99.90;;;;;;4750934;30;20574;-77
2020/12/12 23:15:16;;;;;;;14.55;12.27;;;11.50;99.90;;;;;;4750715;30;20203;-77
2020/12/12 23:17:43;;;;;;;14.60;11.88;;;11.50;99.90;;;;;;4754406;30;20191;-77
2020/12/12 23:20:12;;;;;;;13.88;11.70;;;11.50;99.90;;;;;;4750318;30;20197;-78
2020/12/12 23:22:38;;;;;;;18.05;13.55;;;11.50;99.90;;;;;;4751729;30;20184;-77
2020/12/12 23:25:04;;;;;;;18.00;12.95;;;11.50;99.90;;;;;;4768159;30;20191;-77
2020/12/12 23:27:30;;;;;;;17.75;12.43;;;11.60;99.90;;;;;;4767652;30;20546;-78
2020/12/12 23:29:56;;;;;;;15.03;12.57;;;11.60;99.90;;;;;;4740736;30;20203;-77
2020/12/12 23:32:22;;;;;;;13.35;11.93;;;11.50;99.90;;;;;;4763368;30;20933;-78
2020/12/12 23:34:48;;;;;;;19.30;12.90;;;11.60;99.90;;;;;;4766865;30;20191;-78
2020/12/12 23:37:16;;;;;;;19.08;14.55;;;11.50;99.90;;;;;;4751353;30;20603;-77
2020/12/12 23:39:42;;;;;;;15.37;12.20;;;11.50;99.90;;;;;;4751783;30;20746;-77
2020/12/12 23:42:08;;;;;;;14.27;11.15;;;11.50;99.90;;;;;;4767043;29;20573;-76
2020/12/12 23:44:34;;;;;;;14.33;11.20;;;11.50;99.90;;;;;;4758644;30;20806;-77
2020/12/12 23:47:04;;;;;;;17.67;13.70;;;11.50;99.90;;;;;;4749952;30;20628;-77
2020/12/12 23:49:30;;;;;;;16.35;12.80;;;11.50;99.90;;;;;;4749400;30;20229;-77
2020/12/12 23:51:56;;;;;;;16.93;13.23;;;11.50;99.90;;;;;;4749503;30;20215;-77
2020/12/12 23:54:22;;;;;;;15.55;11.77;;;11.40;99.90;;;;;;4734087;30;20578;-77
2020/12/12 23:56:48;;;;;;;12.82;11.32;;;11.50;99.90;;;;;;4749955;30;20183;-76
2020/12/12 23:59:14;;;;;;;15.93;12.67;;;11.50;99.90;;;;;;4749436;30;20175;-77
